sensor_id;sensor_type;location;lat;lon;timestamp;P1;durP1;ratioP1;P2;durP2;ratioP2
43823;SDS011;29470;53.550;9.926;2023-04-12T00:02:00;10.90;;;5.57;;
43823;SDS011;29470;53.550;9.926;2023-04-12T00:07:03;9.63;;;5.35;;
43823;SDS011;29470;53.550;9.926;2023-04-12T00:12:10;10.63;;;6.03;;
43823;SDS011;29470;53.550;9.926;2023-04-12T00:17:14;12.25;;;6.38;;
43823;SDS011;29470;53.550;9.926;2023-04-12T00:22:19;10.77;;;5.50;;
43823;SDS011;29470;53.550;9.926;2023-04-12T00:27:22;12.48;;;5.80;;
43823;SDS011;29470;53.550;9.926;2023-04-12T00:32:27;12.25;;;5.55;;
43823;SDS011;29470;53.550;9.926;2023-04-12T00:37:30;12.32;;;5.72;;
43823;SDS011;29470;53.550;9.926;2023-04-12T00:42:34;10.35;;;5.70;;
43823;SDS011;29470;53.550;9.926;2023-04-12T00:47:39;10.90;;;5.90;;
43823;SDS011;29470;53.550;9.926;2023-04-12T00:52:43;11.05;;;5.25;;
43823;SDS011;29470;53.550;9.926;2023-04-12T00:57:46;10.45;;;5.15;;
43823;SDS011;29470;53.550;9.926;2023-04-12T01:02:51;9.85;;;5.22;;
43823;SDS011;29470;53.550;9.926;2023-04-12T01:07:57;10.20;;;4.70;;
43823;SDS011;29470;53.550;9.926;2023-04-12T01:13:16;8.80;;;4.45;;
43823;SDS011;29470;53.550;9.926;2023-04-12T01:18:29;9.82;;;3.72;;
43823;SDS011;29470;53.550;9.926;2023-04-12T01:23:50;8.10;;;3.63;;
43823;SDS011;29470;53.550;9.926;2023-04-12T01:29:08;7.30;;;3.55;;
43823;SDS011;29470;53.550;9.926;2023-04-12T01:34:12;8.63;;;3.28;;
43823;SDS011;29470;53.550;9.926;2023-04-12T01:39:16;8.02;;;3.22;;
43823;SDS011;29470;53.550;9.926;2023-04-12T01:44:20;6.85;;;3.67;;
43823;SDS011;29470;53.550;9.926;2023-04-12T01:49:23;5.75;;;2.78;;
43823;SDS011;29470;53.550;9.926;2023-04-12T01:54:32;10.00;;;2.93;;
43823;SDS011;29470;53.550;9.926;2023-04-12T01:59:40;4.60;;;2.67;;
43823;SDS011;29470;53.550;9.926;2023-04-12T02:04:44;4.80;;;3.10;;
43823;SDS011;29470;53.550;9.926;2023-04-12T02:09:49;6.97;;;3.55;;
43823;SDS011;29470;53.550;9.926;2023-04-12T02:14:55;10.13;;;3.78;;
43823;SDS011;29470;53.550;9.926;2023-04-12T02:19:58;7.63;;;3.28;;
43823;SDS011;29470;53.550;9.926;2023-04-12T02:25:01;7.43;;;3.40;;
43823;SDS011;29470;53.550;9.926;2023-04-12T02:30:08;7.82;;;3.58;;
43823;SDS011;29470;53.550;9.926;2023-04-12T02:35:13;8.20;;;3.75;;
43823;SDS011;29470;53.550;9.926;2023-04-12T02:40:20;7.78;;;3.15;;
43823;SDS011;29470;53.550;9.926;2023-04-12T02:45:25;4.85;;;3.00;;
43823;SDS011;29470;53.550;9.926;2023-04-12T02:50:30;6.28;;;3.20;;
43823;SDS011;29470;53.550;9.926;2023-04-12T02:55:42;9.80;;;3.05;;
43823;SDS011;29470;53.550;9.926;2023-04-12T03:00:47;7.05;;;2.65;;
43823;SDS011;29470;53.550;9.926;2023-04-12T03:05:57;5.80;;;3.22;;
43823;SDS011;29470;53.550;9.926;2023-04-12T03:11:01;7.50;;;3.10;;
43823;SDS011;29470;53.550;9.926;2023-04-12T03:16:19;9.30;;;3.05;;
43823;SDS011;29470;53.550;9.926;2023-04-12T03:21:29;7.30;;;3.38;;
43823;SDS011;29470;53.550;9.926;2023-04-12T03:26:35;7.70;;;4.10;;
43823;SDS011;29470;53.550;9.926;2023-04-12T03:31:48;8.48;;;3.75;;
43823;SDS011;29470;53.550;9.926;2023-04-12T03:36:52;8.95;;;4.57;;
43823;SDS011;29470;53.550;9.926;2023-04-12T03:42:18;7.38;;;3.40;;
43823;SDS011;29470;53.550;9.926;2023-04-12T03:47:53;7.95;;;3.53;;
43823;SDS011;29470;53.550;9.926;2023-04-12T03:52:58;6.60;;;3.40;;
43823;SDS011;29470;53.550;9.926;2023-04-12T03:59:18;9.30;;;3.33;;
43823;SDS011;29470;53.550;9.926;2023-04-12T04:16:53;6.05;;;2.88;;
43823;SDS011;29470;53.550;9.926;2023-04-12T04:21:59;7.63;;;3.10;;
43823;SDS011;29470;53.550;9.926;2023-04-12T04:27:25;10.00;;;3.60;;
43823;SDS011;29470;53.550;9.926;2023-04-12T04:32:40;6.63;;;3.00;;
43823;SDS011;29470;53.550;9.926;2023-04-12T04:37:44;7.40;;;2.50;;
43823;SDS011;29470;53.550;9.926;2023-04-12T04:42:51;5.30;;;2.47;;
43823;SDS011;29470;53.550;9.926;2023-04-12T04:47:58;4.05;;;2.40;;
43823;SDS011;29470;53.550;9.926;2023-04-12T04:53:01;7.00;;;2.60;;
43823;SDS011;29470;53.550;9.926;2023-04-12T04:58:07;5.95;;;2.78;;
43823;SDS011;29470;53.550;9.926;2023-04-12T05:03:13;6.38;;;2.72;;
43823;SDS011;29470;53.550;9.926;2023-04-12T05:08:17;5.57;;;2.30;;
43823;SDS011;29470;53.550;9.926;2023-04-12T05:13:23;5.15;;;2.40;;
43823;SDS011;29470;53.550;9.926;2023-04-12T05:18:26;5.70;;;2.47;;
43823;SDS011;29470;53.550;9.926;2023-04-12T05:23:31;6.47;;;2.67;;
43823;SDS011;29470;53.550;9.926;2023-04-12T05:28:38;10.70;;;3.28;;
43823;SDS011;29470;53.550;9.926;2023-04-12T05:33:43;6.15;;;2.50;;
43823;SDS011;29470;53.550;9.926;2023-04-12T05:38:46;8.98;;;2.95;;
43823;SDS011;29470;53.550;9.926;2023-04-12T05:43:51;7.68;;;2.38;;
43823;SDS011;29470;53.550;9.926;2023-04-12T05:48:54;6.35;;;2.30;;
43823;SDS011;29470;53.550;9.926;2023-04-12T05:53:57;5.03;;;2.40;;
43823;SDS011;29470;53.550;9.926;2023-04-12T05:59:07;8.18;;;2.65;;
43823;SDS011;29470;53.550;9.926;2023-04-12T06:04:12;4.15;;;2.33;;
43823;SDS011;29470;53.550;9.926;2023-04-12T06:09:17;7.30;;;2.20;;
43823;SDS011;29470;53.550;9.926;2023-04-12T06:14:24;5.10;;;2.38;;
43823;SDS011;29470;53.550;9.926;2023-04-12T06:19:27;6.15;;;2.30;;
43823;SDS011;29470;53.550;9.926;2023-04-12T06:24:33;5.43;;;2.13;;
43823;SDS011;29470;53.550;9.926;2023-04-12T06:29:37;3.95;;;2.10;;
43823;SDS011;29470;53.550;9.926;2023-04-12T06:34:40;4.78;;;2.00;;
43823;SDS011;29470;53.550;9.926;2023-04-12T06:39:47;2.95;;;1.90;;
43823;SDS011;29470;53.550;9.926;2023-04-12T06:44:51;5.13;;;2.00;;
43823;SDS011;29470;53.550;9.926;2023-04-12T06:49:54;4.90;;;1.88;;
43823;SDS011;29470;53.550;9.926;2023-04-12T06:54:58;3.13;;;1.50;;
43823;SDS011;29470;53.550;9.926;2023-04-12T07:00:03;6.22;;;2.47;;
43823;SDS011;29470;53.550;9.926;2023-04-12T07:05:06;4.57;;;2.28;;
43823;SDS011;29470;53.550;9.926;2023-04-12T07:10:09;5.80;;;2.60;;
43823;SDS011;29470;53.550;9.926;2023-04-12T07:15:14;3.60;;;2.30;;
43823;SDS011;29470;53.550;9.926;2023-04-12T07:20:17;4.10;;;2.50;;
43823;SDS011;29470;53.550;9.926;2023-04-12T07:25:19;7.95;;;2.75;;
43823;SDS011;29470;53.550;9.926;2023-04-12T07:30:24;6.93;;;2.58;;
43823;SDS011;29470;53.550;9.926;2023-04-12T07:35:26;5.32;;;2.53;;
43823;SDS011;29470;53.550;9.926;2023-04-12T07:40:29;6.28;;;3.25;;
43823;SDS011;29470;53.550;9.926;2023-04-12T07:45:33;7.15;;;2.97;;
43823;SDS011;29470;53.550;9.926;2023-04-12T07:50:38;4.30;;;2.92;;
43823;SDS011;29470;53.550;9.926;2023-04-12T07:55:41;7.30;;;3.38;;
43823;SDS011;29470;53.550;9.926;2023-04-12T08:00:45;6.85;;;2.55;;
43823;SDS011;29470;53.550;9.926;2023-04-12T08:05:48;8.68;;;2.83;;
43823;SDS011;29470;53.550;9.926;2023-04-12T08:10:54;6.68;;;2.47;;
43823;SDS011;29470;53.550;9.926;2023-04-12T08:15:58;5.95;;;2.28;;
43823;SDS011;29470;53.550;9.926;2023-04-12T08:21:02;3.88;;;2.05;;
43823;SDS011;29470;53.550;9.926;2023-04-12T08:26:05;5.55;;;2.40;;
43823;SDS011;29470;53.550;9.926;2023-04-12T08:31:09;6.32;;;2.40;;
43823;SDS011;29470;53.550;9.926;2023-04-12T08:36:13;6.70;;;2.50;;
43823;SDS011;29470;53.550;9.926;2023-04-12T08:41:17;5.32;;;2.53;;
43823;SDS011;29470;53.550;9.926;2023-04-12T08:46:21;3.83;;;2.20;;
43823;SDS011;29470;53.550;9.926;2023-04-12T08:51:27;3.75;;;2.10;;
43823;SDS011;29470;53.550;9.926;2023-04-12T08:56:30;6.28;;;2.58;;
43823;SDS011;29470;53.550;9.926;2023-04-12T09:01:35;5.13;;;2.30;;
43823;SDS011;29470;53.550;9.926;2023-04-12T09:06:41;4.87;;;2.60;;
43823;SDS011;29470;53.550;9.926;2023-04-12T09:11:44;6.38;;;2.72;;
43823;SDS011;29470;53.550;9.926;2023-04-12T09:16:50;5.57;;;2.55;;
43823;SDS011;29470;53.550;9.926;2023-04-12T09:21:53;4.13;;;2.47;;
43823;SDS011;29470;53.550;9.926;2023-04-12T09:27:01;6.05;;;2.78;;
43823;SDS011;29470;53.550;9.926;2023-04-12T09:32:07;5.75;;;3.00;;
43823;SDS011;29470;53.550;9.926;2023-04-12T09:37:11;8.32;;;2.97;;
43823;SDS011;29470;53.550;9.926;2023-04-12T09:42:18;6.07;;;2.47;;
43823;SDS011;29470;53.550;9.926;2023-04-12T09:47:36;6.47;;;3.00;;
43823;SDS011;29470;53.550;9.926;2023-04-12T09:52:40;6.90;;;2.55;;
43823;SDS011;29470;53.550;9.926;2023-04-12T09:57:44;7.60;;;2.83;;
43823;SDS011;29470;53.550;9.926;2023-04-12T10:02:49;6.95;;;2.30;;
43823;SDS011;29470;53.550;9.926;2023-04-12T10:07:56;5.53;;;2.22;;
43823;SDS011;29470;53.550;9.926;2023-04-12T10:13:02;4.60;;;2.30;;
43823;SDS011;29470;53.550;9.926;2023-04-12T10:18:08;6.30;;;2.50;;
43823;SDS011;29470;53.550;9.926;2023-04-12T10:23:12;5.05;;;2.22;;
43823;SDS011;29470;53.550;9.926;2023-04-12T10:28:16;5.93;;;2.33;;
43823;SDS011;29470;53.550;9.926;2023-04-12T10:33:25;8.82;;;2.95;;
43823;SDS011;29470;53.550;9.926;2023-04-12T10:38:43;5.30;;;2.35;;
43823;SDS011;29470;53.550;9.926;2023-04-12T10:43:50;6.30;;;2.42;;
43823;SDS011;29470;53.550;9.926;2023-04-12T10:48:57;5.72;;;2.50;;
43823;SDS011;29470;53.550;9.926;2023-04-12T10:59:51;7.43;;;2.15;;
43823;SDS011;29470;53.550;9.926;2023-04-12T11:05:05;6.50;;;2.65;;
43823;SDS011;29470;53.550;9.926;2023-04-12T11:10:24;6.88;;;2.60;;
43823;SDS011;29470;53.550;9.926;2023-04-12T11:15:27;5.80;;;2.38;;
43823;SDS011;29470;53.550;9.926;2023-04-12T11:20:35;5.13;;;2.22;;
43823;SDS011;29470;53.550;9.926;2023-04-12T11:25:41;6.65;;;2.10;;
43823;SDS011;29470;53.550;9.926;2023-04-12T11:30:49;4.75;;;2.78;;
43823;SDS011;29470;53.550;9.926;2023-04-12T11:35:54;6.10;;;2.35;;
43823;SDS011;29470;53.550;9.926;2023-04-12T11:40:57;4.93;;;2.33;;
43823;SDS011;29470;53.550;9.926;2023-04-12T11:46:00;7.28;;;2.78;;
43823;SDS011;29470;53.550;9.926;2023-04-12T11:51:18;5.85;;;2.78;;
43823;SDS011;29470;53.550;9.926;2023-04-12T11:56:25;7.40;;;2.72;;
43823;SDS011;29470;53.550;9.926;2023-04-12T12:01:29;6.22;;;2.58;;
43823;SDS011;29470;53.550;9.926;2023-04-12T12:06:35;8.50;;;2.72;;
43823;SDS011;29470;53.550;9.926;2023-04-12T12:11:39;11.38;;;4.00;;
43823;SDS011;29470;53.550;9.926;2023-04-12T12:16:42;6.25;;;2.90;;
43823;SDS011;29470;53.550;9.926;2023-04-12T12:21:55;7.18;;;3.17;;
43823;SDS011;29470;53.550;9.926;2023-04-12T12:27:11;5.90;;;3.72;;
43823;SDS011;29470;53.550;9.926;2023-04-12T12:32:15;4.47;;;2.72;;
43823;SDS011;29470;53.550;9.926;2023-04-12T12:37:23;7.72;;;3.13;;
43823;SDS011;29470;53.550;9.926;2023-04-12T12:42:27;6.78;;;2.92;;
43823;SDS011;29470;53.550;9.926;2023-04-12T12:47:29;7.35;;;2.78;;
43823;SDS011;29470;53.550;9.926;2023-04-12T12:52:34;5.00;;;3.20;;
43823;SDS011;29470;53.550;9.926;2023-04-12T12:57:37;5.75;;;2.85;;
43823;SDS011;29470;53.550;9.926;2023-04-12T13:02:40;4.13;;;3.10;;
43823;SDS011;29470;53.550;9.926;2023-04-12T13:07:44;6.05;;;3.00;;
43823;SDS011;29470;53.550;9.926;2023-04-12T13:12:50;6.68;;;3.28;;
43823;SDS011;29470;53.550;9.926;2023-04-12T13:17:53;8.00;;;3.67;;
43823;SDS011;29470;53.550;9.926;2023-04-12T13:22:58;6.97;;;3.30;;
43823;SDS011;29470;53.550;9.926;2023-04-12T13:28:01;6.43;;;3.58;;
43823;SDS011;29470;53.550;9.926;2023-04-12T13:33:04;6.07;;;2.83;;
43823;SDS011;29470;53.550;9.926;2023-04-12T13:38:09;11.52;;;3.92;;
43823;SDS011;29470;53.550;9.926;2023-04-12T13:43:11;6.47;;;2.80;;
43823;SDS011;29470;53.550;9.926;2023-04-12T13:48:14;8.20;;;3.85;;
43823;SDS011;29470;53.550;9.926;2023-04-12T13:53:19;7.53;;;3.05;;
43823;SDS011;29470;53.550;9.926;2023-04-12T13:58:21;6.82;;;2.83;;
43823;SDS011;29470;53.550;9.926;2023-04-12T14:03:26;4.53;;;2.33;;
43823;SDS011;29470;53.550;9.926;2023-04-12T14:08:30;6.25;;;2.78;;
43823;SDS011;29470;53.550;9.926;2023-04-12T14:13:33;6.47;;;2.80;;
43823;SDS011;29470;53.550;9.926;2023-04-12T14:18:39;5.13;;;2.63;;
43823;SDS011;29470;53.550;9.926;2023-04-12T14:23:43;5.38;;;2.13;;
43823;SDS011;29470;53.550;9.926;2023-04-12T14:28:46;7.53;;;2.38;;
43823;SDS011;29470;53.550;9.926;2023-04-12T14:33:50;5.82;;;2.40;;
43823;SDS011;29470;53.550;9.926;2023-04-12T14:38:55;4.70;;;2.25;;
43823;SDS011;29470;53.550;9.926;2023-04-12T14:43:58;6.10;;;2.35;;
43823;SDS011;29470;53.550;9.926;2023-04-12T14:49:01;8.63;;;3.58;;
43823;SDS011;29470;53.550;9.926;2023-04-12T14:54:06;7.43;;;3.28;;
43823;SDS011;29470;53.550;9.926;2023-04-12T14:59:08;3.78;;;2.60;;
43823;SDS011;29470;53.550;9.926;2023-04-12T15:04:11;6.82;;;2.50;;
43823;SDS011;29470;53.550;9.926;2023-04-12T15:09:16;5.30;;;2.60;;
43823;SDS011;29470;53.550;9.926;2023-04-12T15:14:18;3.65;;;2.20;;
43823;SDS011;29470;53.550;9.926;2023-04-12T15:19:21;3.55;;;2.30;;
43823;SDS011;29470;53.550;9.926;2023-04-12T15:24:26;3.28;;;2.03;;
43823;SDS011;29470;53.550;9.926;2023-04-12T15:29:31;3.08;;;2.20;;
43823;SDS011;29470;53.550;9.926;2023-04-12T15:34:33;4.88;;;2.53;;
43823;SDS011;29470;53.550;9.926;2023-04-12T15:39:38;4.15;;;2.40;;
43823;SDS011;29470;53.550;9.926;2023-04-12T15:44:41;4.25;;;2.47;;
43823;SDS011;29470;53.550;9.926;2023-04-12T15:49:45;5.05;;;2.40;;
43823;SDS011;29470;53.550;9.926;2023-04-12T15:54:49;7.18;;;2.70;;
43823;SDS011;29470;53.550;9.926;2023-04-12T15:59:52;4.63;;;2.67;;
43823;SDS011;29470;53.550;9.926;2023-04-12T16:04:57;4.38;;;1.92;;
43823;SDS011;29470;53.550;9.926;2023-04-12T16:10:02;4.88;;;2.28;;
43823;SDS011;29470;53.550;9.926;2023-04-12T16:15:06;4.30;;;2.47;;
43823;SDS011;29470;53.550;9.926;2023-04-12T16:20:10;2.67;;;2.10;;
43823;SDS011;29470;53.550;9.926;2023-04-12T16:25:18;4.80;;;2.25;;
43823;SDS011;29470;53.550;9.926;2023-04-12T16:30:22;4.93;;;2.60;;
43823;SDS011;29470;53.550;9.926;2023-04-12T16:35:25;3.47;;;2.55;;
43823;SDS011;29470;53.550;9.926;2023-04-12T16:40:30;4.68;;;2.90;;
43823;SDS011;29470;53.550;9.926;2023-04-12T16:45:32;4.45;;;2.65;;
43823;SDS011;29470;53.550;9.926;2023-04-12T16:50:35;6.10;;;3.53;;
43823;SDS011;29470;53.550;9.926;2023-04-12T16:55:41;4.63;;;2.60;;
43823;SDS011;29470;53.550;9.926;2023-04-12T17:00:44;4.55;;;2.70;;
43823;SDS011;29470;53.550;9.926;2023-04-12T17:05:47;5.45;;;2.78;;
43823;SDS011;29470;53.550;9.926;2023-04-12T17:10:51;5.18;;;3.67;;
43823;SDS011;29470;53.550;9.926;2023-04-12T17:15:55;4.78;;;3.13;;
43823;SDS011;29470;53.550;9.926;2023-04-12T17:20:58;4.63;;;3.08;;
43823;SDS011;29470;53.550;9.926;2023-04-12T17:26:03;4.97;;;2.72;;
43823;SDS011;29470;53.550;9.926;2023-04-12T17:31:07;5.72;;;3.70;;
43823;SDS011;29470;53.550;9.926;2023-04-12T17:36:10;4.72;;;3.53;;
43823;SDS011;29470;53.550;9.926;2023-04-12T17:41:15;6.00;;;3.58;;
43823;SDS011;29470;53.550;9.926;2023-04-12T17:53:13;7.35;;;3.40;;
43823;SDS011;29470;53.550;9.926;2023-04-12T17:58:53;5.32;;;3.60;;
43823;SDS011;29470;53.550;9.926;2023-04-12T18:03:56;7.57;;;4.50;;
43823;SDS011;29470;53.550;9.926;2023-04-12T18:09:03;7.38;;;4.30;;
43823;SDS011;29470;53.550;9.926;2023-04-12T18:14:08;6.10;;;4.20;;
43823;SDS011;29470;53.550;9.926;2023-04-12T18:19:19;6.28;;;4.00;;
43823;SDS011;29470;53.550;9.926;2023-04-12T18:24:21;6.90;;;4.40;;
43823;SDS011;29470;53.550;9.926;2023-04-12T18:29:26;5.82;;;4.47;;
43823;SDS011;29470;53.550;9.926;2023-04-12T18:34:29;8.85;;;5.95;;
43823;SDS011;29470;53.550;9.926;2023-04-12T18:39:32;24.30;;;15.10;;
43823;SDS011;29470;53.550;9.926;2023-04-12T18:44:37;10.45;;;5.55;;
43823;SDS011;29470;53.550;9.926;2023-04-12T18:49:41;9.10;;;5.50;;
43823;SDS011;29470;53.550;9.926;2023-04-12T18:54:46;11.07;;;7.35;;
43823;SDS011;29470;53.550;9.926;2023-04-12T18:59:50;11.07;;;7.13;;
43823;SDS011;29470;53.550;9.926;2023-04-12T19:04:54;8.80;;;5.30;;
43823;SDS011;29470;53.550;9.926;2023-04-12T19:10:04;17.27;;;7.47;;
43823;SDS011;29470;53.550;9.926;2023-04-12T19:42:16;5.18;;;2.40;;
43823;SDS011;29470;53.550;9.926;2023-04-12T19:53:56;3.92;;;1.70;;
43823;SDS011;29470;53.550;9.926;2023-04-12T20:06:38;3.53;;;1.35;;
43823;SDS011;29470;53.550;9.926;2023-04-12T20:12:56;2.22;;;1.30;;
43823;SDS011;29470;53.550;9.926;2023-04-12T20:19:21;2.67;;;1.35;;
43823;SDS011;29470;53.550;9.926;2023-04-12T20:24:36;4.32;;;1.40;;
43823;SDS011;29470;53.550;9.926;2023-04-12T20:29:39;5.55;;;1.63;;
43823;SDS011;29470;53.550;9.926;2023-04-12T20:34:42;5.18;;;1.90;;
43823;SDS011;29470;53.550;9.926;2023-04-12T20:39:49;7.28;;;2.47;;
43823;SDS011;29470;53.550;9.926;2023-04-12T20:44:52;6.30;;;2.15;;
43823;SDS011;29470;53.550;9.926;2023-04-12T20:49:55;4.68;;;1.83;;
43823;SDS011;29470;53.550;9.926;2023-04-12T20:54:59;4.38;;;1.70;;
43823;SDS011;29470;53.550;9.926;2023-04-12T21:00:02;6.68;;;1.83;;
43823;SDS011;29470;53.550;9.926;2023-04-12T21:05:13;3.60;;;1.73;;
43823;SDS011;29470;53.550;9.926;2023-04-12T21:10:18;6.97;;;2.15;;
43823;SDS011;29470;53.550;9.926;2023-04-12T21:15:22;7.03;;;2.60;;
43823;SDS011;29470;53.550;9.926;2023-04-12T21:20:25;7.57;;;3.10;;
43823;SDS011;29470;53.550;9.926;2023-04-12T21:25:32;6.30;;;2.40;;
43823;SDS011;29470;53.550;9.926;2023-04-12T21:30:35;9.75;;;2.70;;
43823;SDS011;29470;53.550;9.926;2023-04-12T21:35:38;6.40;;;2.58;;
43823;SDS011;29470;53.550;9.926;2023-04-12T21:40:42;5.93;;;2.42;;
43823;SDS011;29470;53.550;9.926;2023-04-12T21:45:45;9.52;;;3.25;;
43823;SDS011;29470;53.550;9.926;2023-04-12T21:50:47;5.22;;;2.58;;
43823;SDS011;29470;53.550;9.926;2023-04-12T21:55:52;6.50;;;2.80;;
43823;SDS011;29470;53.550;9.926;2023-04-12T22:00:55;7.25;;;2.60;;
43823;SDS011;29470;53.550;9.926;2023-04-12T22:05:58;7.22;;;2.55;;
43823;SDS011;29470;53.550;9.926;2023-04-12T22:11:06;5.60;;;3.00;;
43823;SDS011;29470;53.550;9.926;2023-04-12T22:16:10;5.97;;;2.50;;
43823;SDS011;29470;53.550;9.926;2023-04-12T22:21:14;6.60;;;2.80;;
43823;SDS011;29470;53.550;9.926;2023-04-12T22:26:18;5.07;;;2.40;;
43823;SDS011;29470;53.550;9.926;2023-04-12T22:31:20;5.93;;;2.53;;
43823;SDS011;29470;53.550;9.926;2023-04-12T22:36:26;6.85;;;2.88;;
43823;SDS011;29470;53.550;9.926;2023-04-12T22:41:31;6.35;;;2.88;;
43823;SDS011;29470;53.550;9.926;2023-04-12T22:46:34;6.25;;;3.00;;
43823;SDS011;29470;53.550;9.926;2023-04-12T22:51:39;6.97;;;3.22;;
43823;SDS011;29470;53.550;9.926;2023-04-12T22:56:43;7.03;;;3.25;;
43823;SDS011;29470;53.550;9.926;2023-04-12T23:01:47;6.43;;;2.90;;
43823;SDS011;29470;53.550;9.926;2023-04-12T23:06:51;6.15;;;2.60;;
43823;SDS011;29470;53.550;9.926;2023-04-12T23:11:57;7.47;;;3.20;;
43823;SDS011;29470;53.550;9.926;2023-04-12T23:16:59;6.18;;;2.83;;
43823;SDS011;29470;53.550;9.926;2023-04-12T23:22:03;6.03;;;3.47;;
43823;SDS011;29470;53.550;9.926;2023-04-12T23:27:07;6.57;;;2.60;;
43823;SDS011;29470;53.550;9.926;2023-04-12T23:32:10;7.22;;;2.50;;
43823;SDS011;29470;53.550;9.926;2023-04-12T23:37:14;8.25;;;2.90;;
43823;SDS011;29470;53.550;9.926;2023-04-12T23:42:18;7.65;;;2.95;;
43823;SDS011;29470;53.550;9.926;2023-04-12T23:47:22;9.85;;;3.50;;
43823;SDS011;29470;53.550;9.926;2023-04-12T23:52:25;6.38;;;3.42;;
43823;SDS011;29470;53.550;9.926;2023-04-12T23:57:30;9.05;;;3.55;;
